createdAt,value
2022-12-14T00:01:55.251Z,13.27
2022-12-14T00:04:22.990Z,16.92
2022-12-14T00:06:50.680Z,17.40
2022-12-14T00:09:18.335Z,12.88
2022-12-14T00:11:46.020Z,18.02
2022-12-14T00:14:13.776Z,12.00
2022-12-14T00:16:41.486Z,15.57
2022-12-14T00:19:12.168Z,16.95
2022-12-14T00:21:39.902Z,14.90
2022-12-14T00:24:07.757Z,12.57
2022-12-14T00:26:35.505Z,17.55
2022-12-14T00:29:03.270Z,15.00
2022-12-14T00:31:32.331Z,17.83
2022-12-14T00:34:01.157Z,12.75
2022-12-14T00:36:32.121Z,12.50
2022-12-14T00:39:00.225Z,19.02
2022-12-14T00:41:28.047Z,14.00
2022-12-14T00:43:55.917Z,18.02
2022-12-14T00:46:23.675Z,14.80
2022-12-14T00:48:51.428Z,17.48
2022-12-14T00:51:19.154Z,9.68
2022-12-14T00:53:48.291Z,15.00
2022-12-14T00:56:16.280Z,15.32
2022-12-14T00:58:43.991Z,17.75
2022-12-14T01:01:13.847Z,16.67
2022-12-14T01:03:43.026Z,20.05
2022-12-14T01:06:15.738Z,12.88
2022-12-14T01:08:43.474Z,19.25
2022-12-14T01:11:13.106Z,15.60
2022-12-14T01:13:41.723Z,17.85
2022-12-14T01:16:11.403Z,14.70
2022-12-14T01:18:40.696Z,20.08
2022-12-14T01:21:11.021Z,14.23
2022-12-14T01:23:39.072Z,20.20
2022-12-14T01:26:06.903Z,11.68
2022-12-14T01:28:36.205Z,16.63
2022-12-14T01:31:09.180Z,19.45
2022-12-14T01:33:37.029Z,18.95
2022-12-14T01:36:06.761Z,15.00
2022-12-14T01:38:34.543Z,16.45
2022-12-14T01:41:02.329Z,15.98
2022-12-14T01:43:50.247Z,18.10
2022-12-14T01:46:23.425Z,18.67
2022-12-14T01:48:54.258Z,13.45
2022-12-14T01:51:21.978Z,20.83
2022-12-14T01:53:49.949Z,19.50
2022-12-14T01:56:18.710Z,18.08
2022-12-14T01:58:46.442Z,19.02
2022-12-14T02:01:16.806Z,13.57
2022-12-14T02:03:50.496Z,18.90
2022-12-14T02:06:23.679Z,12.25
2022-12-14T02:08:53.622Z,17.10
2022-12-14T02:11:30.392Z,16.35
2022-12-14T02:13:58.176Z,17.50
2022-12-14T02:16:27.697Z,15.90
2022-12-14T02:18:55.461Z,17.55
2022-12-14T02:21:29.303Z,14.93
2022-12-14T02:24:34.212Z,15.10
2022-12-14T02:27:14.641Z,15.20
2022-12-14T02:30:00.753Z,16.58
2022-12-14T02:32:46.327Z,13.05
2022-12-14T02:35:23.917Z,19.17
2022-12-14T02:38:03.532Z,14.52
2022-12-14T02:40:37.299Z,13.25
2022-12-14T02:43:14.523Z,12.55
2022-12-14T02:45:46.715Z,20.60
2022-12-14T02:48:19.641Z,13.68
2022-12-14T02:50:56.197Z,16.17
2022-12-14T02:53:30.271Z,16.17
2022-12-14T02:58:34.474Z,14.73
2022-12-14T03:01:04.781Z,18.90
2022-12-14T03:03:32.556Z,13.52
2022-12-14T03:06:03.087Z,18.13
2022-12-14T03:08:34.797Z,21.02
2022-12-14T03:11:05.503Z,16.85
2022-12-14T03:13:39.303Z,13.52
2022-12-14T03:16:13.315Z,17.60
2022-12-14T03:18:47.076Z,16.75
2022-12-14T03:21:19.570Z,18.17
2022-12-14T03:23:50.690Z,19.20
2022-12-14T03:26:22.870Z,18.40
2022-12-14T03:28:54.467Z,20.30
2022-12-14T03:31:31.473Z,17.85
2022-12-14T03:34:01.458Z,21.30
2022-12-14T03:36:36.546Z,15.13
2022-12-14T03:39:08.714Z,15.18
2022-12-14T03:41:48.764Z,19.30
2022-12-14T03:44:31.622Z,20.67
2022-12-14T03:47:10.667Z,10.38
2022-12-14T03:49:55.386Z,20.20
2022-12-14T03:52:29.840Z,18.70
2022-12-14T03:57:48.381Z,21.02
2022-12-14T04:00:20.232Z,15.98
2022-12-14T04:02:56.449Z,23.00
2022-12-14T04:05:31.508Z,20.38
2022-12-14T04:08:06.396Z,22.00
2022-12-14T04:10:58.333Z,14.68
2022-12-14T04:13:49.480Z,24.67
2022-12-14T04:16:39.331Z,18.67
2022-12-14T04:19:16.378Z,19.15
2022-12-14T04:21:49.020Z,19.38
2022-12-14T04:24:41.217Z,23.60
2022-12-14T04:27:16.842Z,22.40
2022-12-14T04:29:57.074Z,25.25
2022-12-14T04:32:30.889Z,23.60
2022-12-14T04:35:06.023Z,19.27
2022-12-14T04:37:38.213Z,15.43
2022-12-14T04:40:09.752Z,21.55
2022-12-14T04:42:50.541Z,22.95
2022-12-14T04:45:23.253Z,17.20
2022-12-14T04:47:58.100Z,23.73
2022-12-14T04:50:31.807Z,18.48
2022-12-14T04:53:04.705Z,23.77
2022-12-14T04:55:38.331Z,20.27
2022-12-14T04:58:13.448Z,20.47
2022-12-14T05:00:53.974Z,28.77
2022-12-14T05:03:28.666Z,26.70
2022-12-14T05:06:14.609Z,21.23
2022-12-14T05:09:05.590Z,9.52
2022-12-14T05:11:56.151Z,21.15
2022-12-14T05:14:33.220Z,21.05
2022-12-14T05:17:08.512Z,30.48
2022-12-14T05:19:37.971Z,18.23
2022-12-14T05:22:08.956Z,20.80
2022-12-14T05:24:36.914Z,18.30
2022-12-14T05:27:04.991Z,21.58
2022-12-14T05:29:32.949Z,26.20
2022-12-14T05:32:02.029Z,23.63
2022-12-14T05:34:30.621Z,28.00
2022-12-14T05:36:58.373Z,19.80
2022-12-14T05:39:27.436Z,14.13
2022-12-14T05:41:55.410Z,29.65
2022-12-14T05:44:23.363Z,25.67
2022-12-14T05:46:51.071Z,27.05
2022-12-14T05:49:18.803Z,28.92
2022-12-14T05:51:46.565Z,25.88
2022-12-14T05:54:14.350Z,27.13
2022-12-14T05:56:43.503Z,32.10
2022-12-14T05:59:15.436Z,24.50
2022-12-14T06:01:43.372Z,25.83
2022-12-14T06:04:11.970Z,23.30
2022-12-14T06:06:39.884Z,31.45
2022-12-14T06:09:08.423Z,30.73
2022-12-14T06:11:39.104Z,28.70
2022-12-14T06:14:09.578Z,33.70
2022-12-14T06:16:41.616Z,26.20
2022-12-14T06:19:09.907Z,31.33
2022-12-14T06:21:39.129Z,36.33
2022-12-14T06:24:08.403Z,24.95
2022-12-14T06:26:37.805Z,32.72
2022-12-14T06:29:05.738Z,27.23
2022-12-14T06:31:35.313Z,32.47
2022-12-14T06:34:04.443Z,23.95
2022-12-14T06:36:34.188Z,30.02
2022-12-14T06:39:03.784Z,27.27
2022-12-14T06:41:31.817Z,21.02
2022-12-14T06:44:05.372Z,23.63
2022-12-14T06:46:35.270Z,25.67
2022-12-14T06:49:03.452Z,27.58
2022-12-14T06:51:31.221Z,26.83
2022-12-14T06:53:59.894Z,30.13
2022-12-14T06:56:28.672Z,31.02
2022-12-14T06:58:57.260Z,21.88
2022-12-14T07:01:26.989Z,36.15
2022-12-14T07:03:58.087Z,39.08
2022-12-14T07:06:27.220Z,29.65
2022-12-14T07:08:56.388Z,46.70
2022-12-14T07:11:24.986Z,34.75
2022-12-14T07:13:52.732Z,35.58
2022-12-14T07:16:22.080Z,32.75
2022-12-14T07:18:50.799Z,33.53
2022-12-14T07:21:20.971Z,28.95
2022-12-14T07:23:49.684Z,33.00
2022-12-14T07:26:19.242Z,42.97
2022-12-14T07:28:47.986Z,36.00
2022-12-14T07:31:17.712Z,34.22
2022-12-14T07:33:45.596Z,26.90
2022-12-14T07:36:15.816Z,32.05
2022-12-14T07:38:46.427Z,25.67
2022-12-14T07:41:21.787Z,30.88
2022-12-14T07:43:50.762Z,37.65
2022-12-14T07:46:21.162Z,35.92
2022-12-14T07:48:50.604Z,30.63
2022-12-14T07:51:21.054Z,36.88
2022-12-14T07:53:51.649Z,24.65
2022-12-14T07:56:22.179Z,30.48
2022-12-14T07:58:50.605Z,27.58
2022-12-14T08:01:20.239Z,33.75
2022-12-14T08:03:49.940Z,38.67
2022-12-14T08:06:19.833Z,23.63
2022-12-14T08:08:48.039Z,27.05
2022-12-14T08:11:19.575Z,36.28
2022-12-14T08:13:47.286Z,35.20
2022-12-14T08:16:16.902Z,34.47
2022-12-14T08:18:45.367Z,29.02
2022-12-14T08:21:14.141Z,32.80
2022-12-14T08:23:42.478Z,37.20
2022-12-14T08:26:10.226Z,35.63
2022-12-14T08:28:39.430Z,29.60
2022-12-14T08:31:09.069Z,30.55
2022-12-14T08:33:38.414Z,41.40
2022-12-14T08:36:08.430Z,40.28
2022-12-14T08:38:36.214Z,36.80
2022-12-14T08:41:05.026Z,37.05
2022-12-14T08:43:33.036Z,52.85
2022-12-14T08:46:02.649Z,44.53
2022-12-14T08:48:30.977Z,53.60
2022-12-14T08:51:02.565Z,63.50
2022-12-14T08:53:30.956Z,42.17
2022-12-14T08:55:59.426Z,52.38
2022-12-14T08:58:27.184Z,56.30
2022-12-14T09:01:03.210Z,69.75
2022-12-14T09:03:31.614Z,62.10
2022-12-14T09:06:03.264Z,55.75
2022-12-14T09:08:32.443Z,84.07
2022-12-14T09:11:00.632Z,66.10
2022-12-14T09:13:31.160Z,80.60
2022-12-14T09:16:00.893Z,56.05
2022-12-14T09:18:31.220Z,59.03
2022-12-14T09:20:59.388Z,72.63
2022-12-14T09:23:29.766Z,67.10
2022-12-14T09:26:03.211Z,79.68
2022-12-14T09:28:32.135Z,68.07
2022-12-14T09:31:02.192Z,62.33
2022-12-14T09:33:34.411Z,60.75
2022-12-14T09:36:05.686Z,74.45
2022-12-14T09:38:35.412Z,77.78
2022-12-14T09:41:07.678Z,75.32
2022-12-14T09:43:41.358Z,98.13
2022-12-14T09:46:29.446Z,65.45
2022-12-14T09:48:59.048Z,54.90
2022-12-14T09:51:35.086Z,44.22
2022-12-14T09:54:07.403Z,43.08
2022-12-14T09:56:35.968Z,33.22
2022-12-14T09:59:04.506Z,29.00
2022-12-14T10:02:29.685Z,23.40
2022-12-14T10:04:53.606Z,19.67
2022-12-14T10:07:34.355Z,31.02
2022-12-14T10:10:06.174Z,29.95
2022-12-14T10:12:53.018Z,10.98
2022-12-14T10:15:28.988Z,16.85
2022-12-14T10:18:49.331Z,16.90
2022-12-14T10:21:14.353Z,12.43
2022-12-14T10:23:48.056Z,15.02
2022-12-14T10:26:20.614Z,12.20
2022-12-14T10:28:56.370Z,4.25
2022-12-14T10:31:36.808Z,5.55
2022-12-14T10:34:17.877Z,0.85
2022-12-14T10:36:55.094Z,2.90
2022-12-14T10:39:31.170Z,2.70
2022-12-14T10:42:05.280Z,3.92
2022-12-14T10:44:50.127Z,6.95
2022-12-14T10:47:27.654Z,0.50
2022-12-14T10:50:04.412Z,0.50
2022-12-14T10:52:39.621Z,1.33
2022-12-14T10:55:15.084Z,2.13
2022-12-14T10:57:43.060Z,1.23
2022-12-14T11:00:22.518Z,5.60
2022-12-14T11:02:55.554Z,3.00
2022-12-14T11:05:37.979Z,3.60
2022-12-14T11:08:08.808Z,0.63
2022-12-14T11:10:39.290Z,1.50
2022-12-14T11:13:15.492Z,0.90
2022-12-14T11:15:45.532Z,4.43
2022-12-14T11:18:28.875Z,0.47
2022-12-14T11:20:58.885Z,2.97
2022-12-14T11:23:30.417Z,6.85
2022-12-14T11:26:00.127Z,0.50
2022-12-14T11:28:36.505Z,0.88
2022-12-14T11:31:07.670Z,0.50
2022-12-14T11:33:39.170Z,0.75
2022-12-14T11:36:08.708Z,0.50
2022-12-14T11:38:37.929Z,0.73
2022-12-14T11:41:11.454Z,4.03
2022-12-14T11:43:40.402Z,0.50
2022-12-14T11:46:08.858Z,1.27
2022-12-14T11:48:39.149Z,3.30
2022-12-14T11:51:11.960Z,3.30
2022-12-14T11:53:41.734Z,7.80
2022-12-14T11:56:15.022Z,1.25
2022-12-14T11:58:49.435Z,3.45
2022-12-14T12:01:21.222Z,4.43
2022-12-14T12:03:52.369Z,0.43
2022-12-14T12:06:23.532Z,1.05
2022-12-14T12:08:58.303Z,0.50
2022-12-14T12:11:28.636Z,5.03
2022-12-14T12:14:01.474Z,13.77
2022-12-14T12:16:32.703Z,1.05
2022-12-14T12:19:11.600Z,3.35
2022-12-14T12:21:42.896Z,7.15
2022-12-14T12:24:19.392Z,9.20
2022-12-14T12:26:51.285Z,4.50
2022-12-14T12:29:25.169Z,1.02
2022-12-14T12:31:58.708Z,0.50
2022-12-14T12:34:31.409Z,6.63
2022-12-14T12:37:25.750Z,0.40
2022-12-14T12:39:57.558Z,1.17
2022-12-14T12:42:33.088Z,5.63
2022-12-14T12:45:06.399Z,1.20
2022-12-14T12:47:47.203Z,0.52
2022-12-14T12:50:18.061Z,0.50
2022-12-14T12:53:00.919Z,6.13
2022-12-14T12:55:35.646Z,5.57
2022-12-14T12:58:09.632Z,1.27
2022-12-14T13:00:39.280Z,0.40
2022-12-14T13:03:11.663Z,1.50
2022-12-14T13:05:46.671Z,0.60
2022-12-14T13:08:23.128Z,0.40
2022-12-14T13:11:24.672Z,0.60
2022-12-14T13:13:48.347Z,0.50
2022-12-14T13:16:26.159Z,6.15
2022-12-14T13:19:13.225Z,10.95
2022-12-14T13:21:51.119Z,0.40
2022-12-14T13:24:20.706Z,1.83
2022-12-14T13:27:19.064Z,4.50
2022-12-14T13:30:18.485Z,0.90
2022-12-14T13:33:04.999Z,0.50
2022-12-14T13:35:45.497Z,3.60
2022-12-14T13:38:34.148Z,0.52
2022-12-14T13:41:28.706Z,0.63
2022-12-14T13:44:14.432Z,0.97
2022-12-14T13:46:42.679Z,1.52
2022-12-14T13:49:23.152Z,2.55
2022-12-14T13:51:52.629Z,1.65
2022-12-14T13:54:27.712Z,2.70
2022-12-14T13:57:05.268Z,0.45
2022-12-14T13:59:38.124Z,0.82
2022-12-14T14:02:26.925Z,0.70
2022-12-14T14:05:45.786Z,0.40
2022-12-14T14:08:36.248Z,2.15
2022-12-14T14:11:52.919Z,3.60
2022-12-14T14:14:32.781Z,0.65
2022-12-14T14:17:09.072Z,6.25
2022-12-14T14:19:40.492Z,4.40
2022-12-14T14:22:24.368Z,7.80
2022-12-14T14:25:01.903Z,2.05
2022-12-14T14:27:35.976Z,2.75
2022-12-14T14:30:05.452Z,0.60
2022-12-14T14:32:40.470Z,0.82
2022-12-14T14:35:22.535Z,1.00
2022-12-14T14:37:58.269Z,0.63
2022-12-14T14:40:58.243Z,1.23
2022-12-14T14:43:32.277Z,4.40
2022-12-14T14:46:02.974Z,15.00
2022-12-14T14:48:35.941Z,0.50
2022-12-14T14:51:07.804Z,0.75
2022-12-14T14:53:37.016Z,0.50
2022-12-14T14:56:13.430Z,0.70
2022-12-14T14:58:42.972Z,1.70
2022-12-14T15:01:20.633Z,3.65
2022-12-14T15:03:55.316Z,3.70
2022-12-14T15:06:27.397Z,0.50
2022-12-14T15:09:03.395Z,3.13
2022-12-14T15:11:42.677Z,1.40
2022-12-14T15:14:26.339Z,1.75
2022-12-14T15:16:54.247Z,5.45
2022-12-14T15:19:33.220Z,1.67
2022-12-14T15:22:05.289Z,2.65
2022-12-14T15:24:39.232Z,0.88
2022-12-14T15:27:19.293Z,0.68
2022-12-14T15:29:49.270Z,0.90
2022-12-14T15:32:21.094Z,4.70
2022-12-14T15:34:55.367Z,1.02
2022-12-14T15:37:29.732Z,5.30
2022-12-14T15:40:07.770Z,5.80
2022-12-14T15:42:35.558Z,9.35
2022-12-14T15:45:13.631Z,1.48
2022-12-14T15:47:41.529Z,6.70
2022-12-14T15:50:27.136Z,7.68
2022-12-14T15:52:57.466Z,5.63
2022-12-14T15:55:33.227Z,2.85
2022-12-14T15:58:08.383Z,14.75
2022-12-14T16:00:41.528Z,24.13
2022-12-14T16:03:19.628Z,1.52
2022-12-14T16:05:49.766Z,8.73
2022-12-14T16:08:17.758Z,5.70
2022-12-14T16:10:49.092Z,1.90
2022-12-14T16:13:24.244Z,4.30
2022-12-14T16:15:53.303Z,7.25
2022-12-14T16:18:21.843Z,9.02
2022-12-14T16:21:00.413Z,2.95
2022-12-14T16:23:32.184Z,10.27
2022-12-14T16:26:02.828Z,1.05
2022-12-14T16:28:33.272Z,6.90
2022-12-14T16:31:04.235Z,1.95
2022-12-14T16:33:35.147Z,0.85
2022-12-14T16:36:07.844Z,0.82
2022-12-14T16:38:41.461Z,0.50
2022-12-14T16:41:10.039Z,5.73
2022-12-14T16:43:39.314Z,7.38
2022-12-14T16:46:18.464Z,7.43
2022-12-14T16:49:02.610Z,12.55
2022-12-14T16:52:05.527Z,8.95
2022-12-14T16:54:26.381Z,6.57
2022-12-14T16:56:58.455Z,8.77
2022-12-14T16:59:29.520Z,5.82
2022-12-14T17:01:58.060Z,5.07
2022-12-14T17:04:34.274Z,10.75
2022-12-14T17:07:04.351Z,7.85
2022-12-14T17:09:35.262Z,6.78
2022-12-14T17:12:10.887Z,5.22
2022-12-14T17:14:38.839Z,9.10
2022-12-14T17:17:06.767Z,23.80
2022-12-14T17:19:38.255Z,12.25
2022-12-14T17:22:15.000Z,7.03
2022-12-14T17:24:42.960Z,4.15
2022-12-14T17:27:15.433Z,3.92
2022-12-14T17:29:43.541Z,14.95
2022-12-14T17:32:13.623Z,18.60
2022-12-14T17:34:41.861Z,8.07
2022-12-14T17:37:16.470Z,6.88
2022-12-14T17:42:13.704Z,7.70
2022-12-14T17:44:42.999Z,19.80
2022-12-14T17:47:13.961Z,8.65
2022-12-14T17:49:42.931Z,8.85
2022-12-14T17:52:19.556Z,4.32
2022-12-14T17:54:47.789Z,8.75
2022-12-14T17:57:17.473Z,16.75
2022-12-14T17:59:47.696Z,1.90
2022-12-14T18:02:26.584Z,8.32
2022-12-14T18:04:54.632Z,5.47
2022-12-14T18:07:23.901Z,9.80
2022-12-14T18:09:53.277Z,7.68
2022-12-14T18:12:23.510Z,12.15
2022-12-14T18:14:52.094Z,16.27
2022-12-14T18:17:20.160Z,9.07
2022-12-14T18:19:49.583Z,11.68
2022-12-14T18:22:17.653Z,13.93
2022-12-14T18:24:47.622Z,7.05
2022-12-14T18:27:17.319Z,9.98
2022-12-14T18:29:44.980Z,6.43
2022-12-14T18:32:15.432Z,6.68
2022-12-14T18:34:43.270Z,11.02
2022-12-14T18:37:11.574Z,4.53
2022-12-14T18:39:39.361Z,14.00
2022-12-14T18:42:09.925Z,0.82
2022-12-14T18:44:38.087Z,0.40
2022-12-14T18:47:33.679Z,0.70
2022-12-14T18:49:53.777Z,0.50
2022-12-14T18:52:21.874Z,8.07
2022-12-14T18:54:51.771Z,11.07
2022-12-14T18:57:23.296Z,14.48
2022-12-14T18:59:51.299Z,4.95
2022-12-14T19:02:19.287Z,3.60
2022-12-14T19:04:48.802Z,1.98
2022-12-14T19:07:16.832Z,2.45
2022-12-14T19:09:44.758Z,0.85
2022-12-14T19:12:12.827Z,3.20
2022-12-14T19:14:42.143Z,5.18
2022-12-14T19:17:09.894Z,1.77
2022-12-14T19:19:42.639Z,2.47
2022-12-14T19:24:39.826Z,4.10
2022-12-14T19:27:07.634Z,3.72
2022-12-14T19:29:36.748Z,5.68
2022-12-14T19:32:06.268Z,8.23
2022-12-14T19:34:34.168Z,0.40
2022-12-14T19:37:01.949Z,3.55
2022-12-14T19:39:29.718Z,3.67
2022-12-14T19:41:57.497Z,0.45
2022-12-14T19:44:25.256Z,1.75
2022-12-14T19:46:53.207Z,8.95
2022-12-14T19:49:22.503Z,4.53
2022-12-14T19:51:50.353Z,3.22
2022-12-14T19:54:18.196Z,2.60
2022-12-14T19:56:46.132Z,5.55
2022-12-14T19:59:17.037Z,3.63
2022-12-14T20:01:47.961Z,5.22
2022-12-14T20:04:19.080Z,2.05
2022-12-14T20:06:48.497Z,2.45
2022-12-14T20:09:18.290Z,0.75
2022-12-14T20:11:46.742Z,2.67
2022-12-14T20:14:15.515Z,2.58
2022-12-14T20:16:43.433Z,0.70
2022-12-14T20:19:14.450Z,1.73
2022-12-14T20:21:42.624Z,5.47
2022-12-14T20:24:12.879Z,0.47
2022-12-14T20:26:41.172Z,0.82
2022-12-14T20:29:08.895Z,3.58
2022-12-14T20:31:37.316Z,2.50
2022-12-14T20:34:07.939Z,1.67
2022-12-14T20:36:35.878Z,7.97
2022-12-14T20:39:05.488Z,2.03
2022-12-14T20:41:34.965Z,0.95
2022-12-14T20:44:03.055Z,4.57
2022-12-14T20:46:32.515Z,0.40
2022-12-14T20:49:01.993Z,4.88
2022-12-14T20:51:30.711Z,9.68
2022-12-14T20:53:58.670Z,4.75
2022-12-14T20:56:26.608Z,3.63
2022-12-14T20:58:56.139Z,5.93
2022-12-14T21:01:24.408Z,9.30
2022-12-14T21:03:52.476Z,8.80
2022-12-14T21:06:22.181Z,3.22
2022-12-14T21:09:04.937Z,2.63
2022-12-14T21:11:52.043Z,14.13
2022-12-14T21:14:22.346Z,5.68
2022-12-14T21:16:52.575Z,5.85
2022-12-14T21:19:20.901Z,9.85
2022-12-14T21:21:53.483Z,7.93
2022-12-14T21:24:52.613Z,7.22
2022-12-14T21:27:15.759Z,3.33
2022-12-14T21:29:45.567Z,8.32
2022-12-14T21:32:13.475Z,11.05
2022-12-14T21:34:42.790Z,16.55
2022-12-14T21:37:11.180Z,3.38
2022-12-14T21:39:38.971Z,19.55
2022-12-14T21:42:15.684Z,7.65
2022-12-14T21:44:46.302Z,3.83
2022-12-14T21:47:15.893Z,5.53
2022-12-14T21:49:45.473Z,6.07
2022-12-14T21:52:15.828Z,5.65
2022-12-14T21:54:44.107Z,7.22
2022-12-14T21:57:32.414Z,5.15
2022-12-14T22:00:01.536Z,12.60
2022-12-14T22:02:41.820Z,14.18
2022-12-14T22:05:10.858Z,1.80
2022-12-14T22:07:38.904Z,4.72
2022-12-14T22:10:07.325Z,9.02
2022-12-14T22:12:35.063Z,7.22
2022-12-14T22:15:04.531Z,9.63
2022-12-14T22:17:32.247Z,4.57
2022-12-14T22:20:00.232Z,8.02
2022-12-14T22:22:28.108Z,11.93
2022-12-14T22:24:55.849Z,12.80
2022-12-14T22:27:23.619Z,11.02
2022-12-14T22:29:51.319Z,4.30
2022-12-14T22:32:20.397Z,6.85
2022-12-14T22:34:48.162Z,16.75
2022-12-14T22:37:16.682Z,13.90
2022-12-14T22:39:47.809Z,4.65
2022-12-14T22:42:16.273Z,10.85
2022-12-14T22:44:43.992Z,8.77
2022-12-14T22:47:11.726Z,6.88
2022-12-14T22:49:40.906Z,3.03
2022-12-14T22:52:09.238Z,5.75
2022-12-14T22:54:38.950Z,9.68
2022-12-14T22:57:11.194Z,11.00
2022-12-14T22:59:45.169Z,4.10
2022-12-14T23:02:13.084Z,7.65
2022-12-14T23:04:42.469Z,3.97
2022-12-14T23:07:10.214Z,11.88
2022-12-14T23:09:55.379Z,10.55
2022-12-14T23:12:40.814Z,10.98
2022-12-14T23:15:26.246Z,6.75
2022-12-14T23:18:13.280Z,5.00
2022-12-14T23:21:00.215Z,8.38
2022-12-14T23:23:45.593Z,5.88
2022-12-14T23:26:31.025Z,3.53
2022-12-14T23:29:16.454Z,8.63
2022-12-14T23:32:01.890Z,10.55
2022-12-14T23:34:47.791Z,11.85
2022-12-14T23:37:34.997Z,10.68
2022-12-14T23:40:20.521Z,6.30
2022-12-14T23:43:05.786Z,4.40
2022-12-14T23:45:51.234Z,7.13
2022-12-14T23:48:36.496Z,9.00
2022-12-14T23:51:22.161Z,12.60
2022-12-14T23:54:08.888Z,9.80
2022-12-14T23:56:54.387Z,3.45
2022-12-14T23:59:39.807Z,8.90
